Dillon, Montana
Current Conditions -  °F | °C
As of 5:53 AM on Saturday 25 Oct 2014 (Local Time) from KDLN Reporting Station
Clear Clear  
Wind Chill: 25°   Ceiling: Unl
Heat Index: 31°   Visibility: 10mi
Dew Point: 30°   Wind: 6mph
Humidity: 96%   Direction: 230°SW
Pressure: 30.03"   Gusts: NA
Location:  45.22°N, 112.64°W
Report Text: KDLN 251153Z AUTO 23005KT 10SM CLR M01/M01 A3003 RMK AO2 SLP168 T10061011 10033 21006 56017
Loading
Personal Weather Stations






























Interactive Weather Map
Tropical Storm Tracking
New forecast layout! Learn more

10-Day Weather Forecast

Advertisements
Track Severe Weather on mobile